createdAt,value
2023-05-05T00:00:05.839Z,95429.00
2023-05-05T00:01:05.757Z,95431.00
2023-05-05T00:02:05.792Z,95427.00
2023-05-05T00:03:05.863Z,95429.00
2023-05-05T00:04:05.969Z,95427.00
2023-05-05T00:05:05.962Z,95427.00
2023-05-05T00:06:05.995Z,95427.00
2023-05-05T00:07:06.029Z,95425.00
2023-05-05T00:08:06.078Z,95417.00
2023-05-05T00:09:06.111Z,95417.00
2023-05-05T00:10:06.247Z,95417.00
2023-05-05T00:11:06.222Z,95425.00
2023-05-05T00:12:06.241Z,95417.00
2023-05-05T00:13:06.331Z,95415.00
2023-05-05T00:14:06.369Z,95415.00
2023-05-05T00:15:06.301Z,95415.00
2023-05-05T00:16:06.317Z,95415.00
2023-05-05T00:17:06.421Z,95417.00
2023-05-05T00:18:06.401Z,95417.00
2023-05-05T00:19:06.365Z,95425.00
2023-05-05T00:20:06.758Z,95425.00
2023-05-05T00:21:06.382Z,95427.00
2023-05-05T00:22:06.384Z,95427.00
2023-05-05T00:23:06.394Z,95425.00
2023-05-05T00:24:06.454Z,95417.00
2023-05-05T00:25:06.431Z,95425.00
2023-05-05T00:26:06.469Z,95425.00
2023-05-05T00:27:06.457Z,95417.00
2023-05-05T00:28:06.424Z,95417.00
2023-05-05T00:29:06.437Z,95425.00
2023-05-05T00:30:06.661Z,95417.00
2023-05-05T00:31:06.534Z,95415.00
2023-05-05T00:32:06.525Z,95415.00
2023-05-05T00:33:06.642Z,95415.00
2023-05-05T00:34:06.631Z,95417.00
2023-05-05T00:35:06.656Z,95425.00
2023-05-05T00:36:06.701Z,95427.00
2023-05-05T00:37:06.719Z,95429.00
2023-05-05T00:38:06.757Z,95417.00
2023-05-05T00:39:06.850Z,95425.00
2023-05-05T00:40:07.136Z,95417.00
2023-05-05T00:41:06.906Z,95425.00
2023-05-05T00:42:06.926Z,95427.00
2023-05-05T00:43:06.944Z,95417.00
2023-05-05T00:44:06.997Z,95429.00
2023-05-05T00:45:07.043Z,95425.00
2023-05-05T00:46:07.086Z,95429.00
2023-05-05T00:47:07.095Z,95431.00
2023-05-05T00:48:07.200Z,95433.00
2023-05-05T00:49:07.254Z,95429.00
2023-05-05T00:50:07.417Z,95427.00
2023-05-05T00:51:07.252Z,95429.00
2023-05-05T00:52:07.358Z,95427.00
2023-05-05T00:53:07.393Z,95431.00
2023-05-05T00:54:07.398Z,95427.00
2023-05-05T00:55:07.472Z,95427.00
2023-05-05T00:56:07.520Z,95429.00
2023-05-05T00:57:07.564Z,95427.00
2023-05-05T00:58:07.602Z,95427.00
2023-05-05T00:59:07.652Z,95427.00
2023-05-05T01:00:07.882Z,95427.00
2023-05-05T01:01:07.868Z,95433.00
2023-05-05T01:02:07.851Z,95431.00
2023-05-05T01:03:08.003Z,95427.00
2023-05-05T01:04:08.052Z,95425.00
2023-05-05T01:05:08.030Z,95429.00
2023-05-05T01:06:08.134Z,95425.00
2023-05-05T01:07:08.143Z,95415.00
2023-05-05T01:08:08.208Z,95417.00
2023-05-05T01:09:08.267Z,95415.00
2023-05-05T01:10:18.802Z,95425.00
2023-05-05T01:11:09.303Z,95415.00
2023-05-05T01:12:08.276Z,95415.00
2023-05-05T01:13:08.354Z,95415.00
2023-05-05T01:14:08.257Z,95413.00
2023-05-05T01:15:08.290Z,95417.00
2023-05-05T01:16:08.350Z,95417.00
2023-05-05T01:17:08.227Z,95417.00
2023-05-05T01:18:08.281Z,95417.00
2023-05-05T01:19:08.312Z,95417.00
2023-05-05T01:20:08.580Z,95417.00
2023-05-05T01:21:08.463Z,95415.00
2023-05-05T01:22:08.426Z,95415.00
2023-05-05T01:23:08.531Z,95415.00
2023-05-05T01:24:08.603Z,95417.00
2023-05-05T01:25:08.612Z,95417.00
2023-05-05T01:26:08.691Z,95417.00
2023-05-05T01:27:08.767Z,95425.00
2023-05-05T01:28:08.762Z,95417.00
2023-05-05T01:29:08.768Z,95425.00
2023-05-05T01:30:08.931Z,95425.00
2023-05-05T01:31:08.817Z,95429.00
2023-05-05T01:32:08.795Z,95425.00
2023-05-05T01:33:08.791Z,95417.00
2023-05-05T01:34:08.833Z,95425.00
2023-05-05T01:35:08.818Z,95427.00
2023-05-05T01:36:08.878Z,95429.00
2023-05-05T01:37:08.888Z,95427.00
2023-05-05T01:38:08.885Z,95427.00
2023-05-05T01:39:08.937Z,95429.00
2023-05-05T01:40:09.057Z,95431.00
2023-05-05T01:41:08.956Z,95431.00
2023-05-05T01:42:09.008Z,95431.00
2023-05-05T01:43:09.052Z,95431.00
2023-05-05T01:44:09.074Z,95433.00
2023-05-05T01:45:09.154Z,95431.00
2023-05-05T01:46:09.272Z,95433.00
2023-05-05T01:47:09.298Z,95433.00
2023-05-05T01:48:09.313Z,95435.00
2023-05-05T01:49:09.368Z,95433.00
2023-05-05T01:50:09.718Z,95435.00
2023-05-05T01:51:09.470Z,95437.00
2023-05-05T01:52:09.543Z,95435.00
2023-05-05T01:53:09.592Z,95435.00
2023-05-05T01:54:09.670Z,95431.00
2023-05-05T01:55:09.662Z,95431.00
2023-05-05T01:56:09.777Z,95431.00
2023-05-05T01:57:09.811Z,95435.00
2023-05-05T01:58:09.864Z,95435.00
2023-05-05T01:59:09.896Z,95437.00
2023-05-05T02:00:10.194Z,95439.00
2023-05-05T02:01:10.025Z,95441.00
2023-05-05T02:02:11.011Z,95437.00
2023-05-05T02:03:10.134Z,95439.00
2023-05-05T02:04:10.116Z,95435.00
2023-05-05T02:05:10.166Z,95435.00
2023-05-05T02:06:10.270Z,95435.00
2023-05-05T02:07:10.273Z,95437.00
2023-05-05T02:08:10.290Z,95435.00
2023-05-05T02:09:10.371Z,95437.00
2023-05-05T02:10:10.549Z,95441.00
2023-05-05T02:11:10.504Z,95441.00
2023-05-05T02:12:10.567Z,95441.00
2023-05-05T02:13:10.725Z,95439.00
2023-05-05T02:14:10.651Z,95441.00
2023-05-05T02:15:10.720Z,95443.00
2023-05-05T02:16:10.875Z,95443.00
2023-05-05T02:17:10.864Z,95445.00
2023-05-05T02:18:10.898Z,95445.00
2023-05-05T02:19:10.968Z,95445.00
2023-05-05T02:20:11.013Z,95447.00
2023-05-05T02:21:11.115Z,95447.00
2023-05-05T02:22:11.172Z,95447.00
2023-05-05T02:23:11.178Z,95447.00
2023-05-05T02:24:11.250Z,95447.00
2023-05-05T02:25:11.341Z,95447.00
2023-05-05T02:26:11.382Z,95445.00
2023-05-05T02:27:11.421Z,95451.00
2023-05-05T02:28:11.503Z,95449.00
2023-05-05T02:29:11.585Z,95451.00
2023-05-05T02:30:11.634Z,95455.00
2023-05-05T02:31:11.712Z,95455.00
2023-05-05T02:32:11.756Z,95455.00
2023-05-05T02:33:11.777Z,95455.00
2023-05-05T02:34:11.823Z,95451.00
2023-05-05T02:35:11.884Z,95449.00
2023-05-05T02:36:11.921Z,95449.00
2023-05-05T02:37:12.019Z,95447.00
2023-05-05T02:38:12.056Z,95451.00
2023-05-05T02:39:12.112Z,95453.00
2023-05-05T02:40:12.154Z,95458.00
2023-05-05T02:41:12.203Z,95460.00
2023-05-05T02:42:12.172Z,95456.00
2023-05-05T02:43:12.277Z,95456.00
2023-05-05T02:44:12.253Z,95456.00
2023-05-05T02:45:12.318Z,95453.00
2023-05-05T02:46:12.373Z,95453.00
2023-05-05T02:47:12.343Z,95456.00
2023-05-05T02:48:12.387Z,95455.00
2023-05-05T02:49:12.431Z,95462.00
2023-05-05T02:50:13.414Z,95456.00
2023-05-05T02:51:12.542Z,95460.00
2023-05-05T02:52:12.663Z,95458.00
2023-05-05T02:53:12.682Z,95462.00
2023-05-05T02:54:12.736Z,95462.00
2023-05-05T02:55:12.734Z,95460.00
2023-05-05T02:56:12.810Z,95460.00
2023-05-05T02:57:12.867Z,95460.00
2023-05-05T02:58:12.902Z,95458.00
2023-05-05T02:59:15.878Z,95458.00
2023-05-05T03:00:12.955Z,95460.00
2023-05-05T03:01:12.974Z,95458.00
2023-05-05T03:02:12.947Z,95460.00
2023-05-05T03:03:12.989Z,95460.00
2023-05-05T03:04:12.891Z,95462.00
2023-05-05T03:05:12.922Z,95462.00
2023-05-05T03:06:12.878Z,95462.00
2023-05-05T03:07:12.944Z,95460.00
2023-05-05T03:08:12.865Z,95466.00
2023-05-05T03:09:12.877Z,95462.00
2023-05-05T03:10:12.882Z,95462.00
2023-05-05T03:11:12.852Z,95460.00
2023-05-05T03:12:12.850Z,95462.00
2023-05-05T03:13:12.938Z,95458.00
2023-05-05T03:14:12.820Z,95458.00
2023-05-05T03:15:12.815Z,95458.00
2023-05-05T03:16:12.807Z,95462.00
2023-05-05T03:17:12.800Z,95460.00
2023-05-05T03:18:12.817Z,95464.00
2023-05-05T03:19:12.804Z,95462.00
2023-05-05T03:20:12.759Z,95464.00
2023-05-05T03:21:12.790Z,95464.00
2023-05-05T03:22:12.749Z,95462.00
2023-05-05T03:23:12.728Z,95462.00
2023-05-05T03:24:12.732Z,95460.00
2023-05-05T03:25:12.751Z,95460.00
2023-05-05T03:26:12.735Z,95460.00
2023-05-05T03:27:12.754Z,95458.00
2023-05-05T03:28:12.704Z,95462.00
2023-05-05T03:29:12.715Z,95458.00
2023-05-05T03:30:12.723Z,95456.00
2023-05-05T03:31:12.743Z,95458.00
2023-05-05T03:32:12.796Z,95460.00
2023-05-05T03:33:12.708Z,95466.00
2023-05-05T03:34:12.705Z,95464.00
2023-05-05T03:35:12.716Z,95468.00
2023-05-05T03:36:12.696Z,95464.00
2023-05-05T03:37:12.655Z,95464.00
2023-05-05T03:38:12.667Z,95464.00
2023-05-05T03:39:12.677Z,95462.00
2023-05-05T03:40:12.654Z,95462.00
2023-05-05T03:41:12.643Z,95464.00
2023-05-05T03:42:12.658Z,95466.00
2023-05-05T03:43:12.603Z,95466.00
2023-05-05T03:44:12.596Z,95464.00
2023-05-05T03:45:12.606Z,95464.00
2023-05-05T03:46:12.621Z,95464.00
2023-05-05T03:47:12.578Z,95464.00
2023-05-05T03:48:12.596Z,95466.00
2023-05-05T03:49:12.605Z,95464.00
2023-05-05T03:50:12.552Z,95462.00
2023-05-05T03:51:12.555Z,95460.00
2023-05-05T03:52:14.514Z,95460.00
2023-05-05T03:53:12.732Z,95460.00
2023-05-05T03:54:12.731Z,95458.00
2023-05-05T03:55:12.740Z,95456.00
2023-05-05T03:56:12.758Z,95458.00
2023-05-05T03:57:12.770Z,95460.00
2023-05-05T03:58:12.753Z,95458.00
2023-05-05T03:59:12.771Z,95458.00
2023-05-05T04:00:12.774Z,95460.00
2023-05-05T04:01:12.782Z,95456.00
2023-05-05T04:02:12.830Z,95456.00
2023-05-05T04:03:12.890Z,95456.00
2023-05-05T04:04:12.905Z,95458.00
2023-05-05T04:05:12.774Z,95458.00
2023-05-05T04:06:12.759Z,95458.00
2023-05-05T04:07:12.761Z,95456.00
2023-05-05T04:08:12.788Z,95456.00
2023-05-05T04:09:12.736Z,95456.00
2023-05-05T04:10:12.759Z,95458.00
2023-05-05T04:11:12.750Z,95460.00
2023-05-05T04:12:12.809Z,95460.00
2023-05-05T04:13:12.908Z,95460.00
2023-05-05T04:14:12.878Z,95460.00
2023-05-05T04:15:12.889Z,95462.00
2023-05-05T04:16:12.981Z,95460.00
2023-05-05T04:17:12.969Z,95464.00
2023-05-05T04:18:13.001Z,95462.00
2023-05-05T04:19:13.032Z,95466.00
2023-05-05T04:20:13.078Z,95464.00
2023-05-05T04:21:13.072Z,95464.00
2023-05-05T04:22:13.125Z,95466.00
2023-05-05T04:23:13.150Z,95464.00
2023-05-05T04:24:13.167Z,95466.00
2023-05-05T04:25:13.210Z,95466.00
2023-05-05T04:26:13.253Z,95466.00
2023-05-05T04:27:13.264Z,95466.00
2023-05-05T04:28:13.288Z,95466.00
2023-05-05T04:29:13.290Z,95464.00
2023-05-05T04:30:13.349Z,95466.00
2023-05-05T04:31:13.424Z,95464.00
2023-05-05T04:32:13.371Z,95466.00
2023-05-05T04:33:13.421Z,95470.00
2023-05-05T04:34:13.428Z,95470.00
2023-05-05T04:35:13.466Z,95474.00
2023-05-05T04:36:13.488Z,95472.00
2023-05-05T04:37:13.564Z,95472.00
2023-05-05T04:38:13.563Z,95474.00
2023-05-05T04:39:13.553Z,95476.00
2023-05-05T04:40:13.570Z,95474.00
2023-05-05T04:41:13.569Z,95478.00
2023-05-05T04:42:13.586Z,95478.00
2023-05-05T04:43:13.578Z,95480.00
2023-05-05T04:44:13.606Z,95482.00
2023-05-05T04:45:13.597Z,95480.00
2023-05-05T04:46:13.623Z,95480.00
2023-05-05T04:47:14.837Z,95484.00
2023-05-05T04:48:13.728Z,95482.00
2023-05-05T04:49:13.735Z,95484.00
2023-05-05T04:50:13.768Z,95482.00
2023-05-05T04:51:13.764Z,95482.00
2023-05-05T04:52:13.797Z,95480.00
2023-05-05T04:53:13.802Z,95480.00
2023-05-05T04:54:13.881Z,95480.00
2023-05-05T04:55:13.874Z,95484.00
2023-05-05T04:56:13.894Z,95486.00
2023-05-05T04:57:13.911Z,95488.00
2023-05-05T04:58:13.953Z,95482.00
2023-05-05T04:59:13.940Z,95484.00
2023-05-05T05:00:14.016Z,95486.00
2023-05-05T05:02:33.612Z,95488.00
2023-05-05T05:03:33.713Z,95492.00
2023-05-05T05:04:33.555Z,95490.00
2023-05-05T05:05:33.472Z,95492.00
2023-05-05T05:06:33.546Z,95490.00
2023-05-05T05:07:33.474Z,95492.00
2023-05-05T05:08:33.439Z,95490.00
2023-05-05T05:09:33.438Z,95490.00
2023-05-05T05:10:33.438Z,95492.00
2023-05-05T05:11:33.452Z,95498.00
2023-05-05T05:12:33.450Z,95498.00
2023-05-05T05:13:33.419Z,95498.00
2023-05-05T05:14:33.431Z,95496.00
2023-05-05T05:15:33.423Z,95498.00
2023-05-05T05:16:33.463Z,95496.00
2023-05-05T05:17:33.468Z,95494.00
2023-05-05T05:18:33.404Z,95494.00
2023-05-05T05:19:33.402Z,95494.00
2023-05-05T05:20:33.377Z,95496.00
2023-05-05T05:21:33.380Z,95496.00
2023-05-05T05:22:33.680Z,95494.00
2023-05-05T05:23:33.333Z,95496.00
2023-05-05T05:24:33.332Z,95494.00
2023-05-05T05:25:33.492Z,95494.00
2023-05-05T05:26:33.345Z,95496.00
2023-05-05T05:27:33.337Z,95494.00
2023-05-05T05:28:33.348Z,95492.00
2023-05-05T05:29:33.316Z,95488.00
2023-05-05T05:30:33.318Z,95490.00
2023-05-05T05:31:33.322Z,95492.00
2023-05-05T05:32:33.763Z,95490.00
2023-05-05T05:33:33.282Z,95488.00
2023-05-05T05:34:33.296Z,95488.00
2023-05-05T05:35:33.249Z,95488.00
2023-05-05T05:36:33.320Z,95494.00
2023-05-05T05:37:33.756Z,95492.00
2023-05-05T05:38:33.342Z,95494.00
2023-05-05T05:39:33.236Z,95492.00
2023-05-05T05:40:33.254Z,95494.00
2023-05-05T05:41:33.235Z,95496.00
2023-05-05T05:42:33.203Z,95498.00
2023-05-05T05:43:33.237Z,95500.00
2023-05-05T05:44:33.246Z,95498.00
2023-05-05T05:45:33.154Z,95498.00
2023-05-05T05:47:53.879Z,95498.00
2023-05-05T05:48:53.095Z,95496.00
2023-05-05T05:49:52.953Z,95496.00
2023-05-05T05:50:52.985Z,95500.00
2023-05-05T05:51:52.996Z,95500.00
2023-05-05T05:52:53.838Z,95496.00
2023-05-05T05:53:52.913Z,95498.00
2023-05-05T05:54:52.930Z,95500.00
2023-05-05T05:55:53.976Z,95496.00
2023-05-05T05:56:52.921Z,95496.00
2023-05-05T05:57:53.336Z,95500.00
2023-05-05T05:58:52.977Z,95496.00
2023-05-05T05:59:52.967Z,95500.00
2023-05-05T06:00:52.930Z,95500.00
2023-05-05T06:01:53.035Z,95502.00
2023-05-05T06:02:52.995Z,95502.00
2023-05-05T06:03:52.973Z,95502.00
2023-05-05T06:04:52.953Z,95503.00
2023-05-05T06:05:52.863Z,95503.00
2023-05-05T06:06:52.882Z,95503.00
2023-05-05T06:07:53.323Z,95500.00
2023-05-05T06:08:52.810Z,95498.00
2023-05-05T06:09:52.823Z,95500.00
2023-05-05T06:10:52.890Z,95502.00
2023-05-05T06:11:52.819Z,95503.00
2023-05-05T06:12:52.927Z,95502.00
2023-05-05T06:13:52.836Z,95500.00
2023-05-05T06:14:52.838Z,95500.00
2023-05-05T06:15:52.851Z,95500.00
2023-05-05T06:16:52.832Z,95502.00
2023-05-05T06:17:52.863Z,95500.00
2023-05-05T06:18:52.765Z,95503.00
2023-05-05T06:19:54.463Z,95502.00
2023-05-05T06:20:52.749Z,95496.00
2023-05-05T06:21:52.761Z,95498.00
2023-05-05T06:22:52.770Z,95494.00
2023-05-05T06:23:52.780Z,95492.00
2023-05-05T06:24:52.714Z,95492.00
2023-05-05T06:25:52.792Z,95492.00
2023-05-05T06:26:52.794Z,95494.00
2023-05-05T06:27:52.903Z,95494.00
2023-05-05T06:28:52.812Z,95496.00
2023-05-05T06:29:52.844Z,95496.00
2023-05-05T06:30:52.855Z,95492.00
2023-05-05T06:31:53.035Z,95490.00
2023-05-05T06:32:52.846Z,95490.00
2023-05-05T06:33:52.918Z,95488.00
2023-05-05T06:34:52.857Z,95486.00
2023-05-05T06:35:52.870Z,95482.00
2023-05-05T06:36:52.892Z,95482.00
2023-05-05T06:37:53.375Z,95482.00
2023-05-05T06:38:53.904Z,95480.00
2023-05-05T06:39:53.715Z,95478.00
2023-05-05T06:40:52.937Z,95478.00
2023-05-05T06:41:53.009Z,95474.00
2023-05-05T06:42:53.101Z,95474.00
2023-05-05T06:43:53.099Z,95470.00
2023-05-05T06:44:53.153Z,95468.00
2023-05-05T06:45:53.262Z,95470.00
2023-05-05T06:46:53.879Z,95470.00
2023-05-05T06:47:53.503Z,95468.00
2023-05-05T06:48:53.292Z,95470.00
2023-05-05T06:49:53.403Z,95468.00
2023-05-05T06:50:53.501Z,95468.00
2023-05-05T06:51:53.387Z,95468.00
2023-05-05T06:52:53.903Z,95462.00
2023-05-05T06:53:53.532Z,95462.00
2023-05-05T06:54:53.495Z,95462.00
2023-05-05T06:55:53.503Z,95464.00
2023-05-05T06:56:53.883Z,95464.00
2023-05-05T06:57:53.656Z,95464.00
2023-05-05T06:58:53.538Z,95464.00
2023-05-05T06:59:53.531Z,95462.00
2023-05-05T07:00:53.587Z,95464.00
2023-05-05T07:01:53.862Z,95464.00
2023-05-05T07:02:53.986Z,95466.00
2023-05-05T07:03:53.715Z,95466.00
2023-05-05T07:04:53.681Z,95464.00
2023-05-05T07:05:53.691Z,95462.00
2023-05-05T07:06:53.665Z,95464.00
2023-05-05T07:07:53.675Z,95464.00
2023-05-05T07:08:53.666Z,95464.00
2023-05-05T07:09:53.710Z,95460.00
2023-05-05T07:10:53.852Z,95460.00
2023-05-05T07:11:53.829Z,95455.00
2023-05-05T07:12:53.960Z,95455.00
2023-05-05T07:13:53.878Z,95456.00
2023-05-05T07:14:53.945Z,95455.00
2023-05-05T07:15:54.002Z,95453.00
2023-05-05T07:16:54.054Z,95455.00
2023-05-05T07:17:54.214Z,95451.00
2023-05-05T07:18:54.141Z,95449.00
2023-05-05T07:19:54.193Z,95445.00
2023-05-05T07:20:54.498Z,95451.00
2023-05-05T07:21:54.226Z,95447.00
2023-05-05T07:22:54.308Z,95443.00
2023-05-05T07:23:54.340Z,95443.00
2023-05-05T07:24:54.352Z,95441.00
2023-05-05T07:25:54.457Z,95443.00
2023-05-05T07:26:54.974Z,95439.00
2023-05-05T07:27:54.897Z,95437.00
2023-05-05T07:28:54.454Z,95441.00
2023-05-05T07:29:54.450Z,95441.00
2023-05-05T07:30:54.471Z,95443.00
2023-05-05T07:31:54.495Z,95439.00
2023-05-05T07:32:54.505Z,95435.00
2023-05-05T07:33:54.491Z,95433.00
2023-05-05T07:34:54.489Z,95433.00
2023-05-05T07:35:54.509Z,95431.00
2023-05-05T07:36:54.615Z,95427.00
2023-05-05T07:37:54.641Z,95425.00
2023-05-05T07:38:54.747Z,95427.00
2023-05-05T07:39:54.792Z,95427.00
2023-05-05T07:40:54.811Z,95425.00
2023-05-05T07:41:54.842Z,95417.00
2023-05-05T07:42:55.437Z,95425.00
2023-05-05T07:43:54.972Z,95413.00
2023-05-05T07:44:55.085Z,95413.00
2023-05-05T07:45:55.099Z,95411.00
2023-05-05T07:46:55.146Z,95409.00
2023-05-05T07:47:55.144Z,95409.00
2023-05-05T07:48:55.191Z,95407.00
2023-05-05T07:49:55.334Z,95403.00
2023-05-05T07:50:55.241Z,95402.00
2023-05-05T07:51:55.316Z,95402.00
2023-05-05T07:53:02.397Z,95398.00
2023-05-05T07:53:56.646Z,95398.00
2023-05-05T07:54:55.310Z,95394.00
2023-05-05T07:55:55.257Z,95392.00
2023-05-05T07:56:55.276Z,95392.00
2023-05-05T07:57:55.329Z,95388.00
2023-05-05T07:58:55.246Z,95390.00
2023-05-05T07:59:55.267Z,95390.00
2023-05-05T08:00:55.226Z,95390.00
2023-05-05T08:01:55.277Z,95388.00
2023-05-05T08:02:55.470Z,95386.00
2023-05-05T08:03:55.317Z,95394.00
2023-05-05T08:04:55.301Z,95390.00
2023-05-05T08:05:55.353Z,95390.00
2023-05-05T08:06:55.446Z,95392.00
2023-05-05T08:07:55.431Z,95392.00
2023-05-05T08:08:55.459Z,95390.00
2023-05-05T08:09:55.460Z,95390.00
2023-05-05T08:10:55.562Z,95388.00
2023-05-05T08:11:55.636Z,95388.00
2023-05-05T08:12:55.656Z,95384.00
2023-05-05T08:13:55.594Z,95384.00
2023-05-05T08:14:55.623Z,95386.00
2023-05-05T08:15:55.724Z,95382.00
2023-05-05T08:16:55.687Z,95378.00
2023-05-05T08:17:55.812Z,95380.00
2023-05-05T08:18:55.774Z,95378.00
2023-05-05T08:19:55.853Z,95374.00
2023-05-05T08:20:55.934Z,95376.00
2023-05-05T08:21:56.068Z,95374.00
2023-05-05T08:22:56.161Z,95370.00
2023-05-05T08:23:56.122Z,95372.00
2023-05-05T08:24:56.161Z,95368.00
2023-05-05T08:25:56.270Z,95368.00
2023-05-05T08:26:56.257Z,95366.00
2023-05-05T08:27:56.306Z,95366.00
2023-05-05T08:28:56.277Z,95366.00
2023-05-05T08:29:56.386Z,95364.00
2023-05-05T08:30:56.385Z,95366.00
2023-05-05T08:31:56.418Z,95361.00
2023-05-05T08:32:56.630Z,95358.00
2023-05-05T08:33:56.354Z,95356.00
2023-05-05T08:34:56.433Z,95353.00
2023-05-05T08:35:56.360Z,95351.00
2023-05-05T08:36:56.367Z,95351.00
2023-05-05T08:37:58.676Z,95351.00
2023-05-05T08:38:56.437Z,95349.00
2023-05-05T08:39:56.371Z,95347.00
2023-05-05T08:40:56.503Z,95347.00
2023-05-05T08:41:56.373Z,95347.00
2023-05-05T08:42:56.386Z,95345.00
2023-05-05T08:43:56.412Z,95339.00
2023-05-05T08:44:58.350Z,95341.00
2023-05-05T08:45:56.415Z,95339.00
2023-05-05T08:46:56.379Z,95337.00
2023-05-05T08:47:56.539Z,95337.00
2023-05-05T08:48:56.335Z,95335.00
2023-05-05T08:49:56.348Z,95331.00
2023-05-05T08:50:57.305Z,95329.00
2023-05-05T08:51:56.462Z,95323.00
2023-05-05T08:52:56.977Z,95329.00
2023-05-05T08:53:56.450Z,95331.00
2023-05-05T08:54:56.591Z,95329.00
2023-05-05T08:55:56.525Z,95333.00
2023-05-05T08:56:56.581Z,95333.00
2023-05-05T08:57:56.955Z,95329.00
2023-05-05T08:58:56.696Z,95327.00
2023-05-05T08:59:56.723Z,95325.00
2023-05-05T09:00:56.886Z,95323.00
2023-05-05T09:01:56.849Z,95321.00
2023-05-05T09:02:57.127Z,95323.00
2023-05-05T09:03:56.815Z,95321.00
2023-05-05T09:04:56.833Z,95319.00
2023-05-05T09:05:56.858Z,95319.00
2023-05-05T09:06:56.877Z,95317.00
2023-05-05T09:07:56.896Z,95313.00
2023-05-05T09:08:59.493Z,95315.00
2023-05-05T09:09:56.849Z,95313.00
2023-05-05T09:10:56.914Z,95311.00
2023-05-05T09:11:56.828Z,95309.00
2023-05-05T09:12:56.878Z,95308.00
2023-05-05T09:13:56.908Z,95304.00
2023-05-05T09:14:58.931Z,95302.00
2023-05-05T09:15:57.137Z,95306.00
2023-05-05T09:16:57.015Z,95304.00
2023-05-05T09:17:57.170Z,95300.00
2023-05-05T09:18:57.424Z,95298.00
2023-05-05T09:19:57.170Z,95296.00
2023-05-05T09:20:59.498Z,95294.00
2023-05-05T09:21:57.407Z,95292.00
2023-05-05T09:22:58.948Z,95292.00
2023-05-05T09:24:00.305Z,95290.00
2023-05-05T09:24:58.461Z,95290.00
2023-05-05T09:25:57.403Z,95288.00
2023-05-05T09:26:59.073Z,95288.00
2023-05-05T09:27:57.313Z,95284.00
2023-05-05T09:28:57.328Z,95286.00
2023-05-05T09:29:57.282Z,95284.00
2023-05-05T09:30:57.385Z,95282.00
2023-05-05T09:31:57.367Z,95286.00
2023-05-05T09:32:57.384Z,95280.00
2023-05-05T09:33:57.460Z,95278.00
2023-05-05T09:34:57.445Z,95278.00
2023-05-05T09:35:57.494Z,95276.00
2023-05-05T09:36:57.507Z,95278.00
2023-05-05T09:37:57.542Z,95270.00
2023-05-05T09:38:58.813Z,95272.00
2023-05-05T09:39:57.617Z,95272.00
2023-05-05T09:40:57.609Z,95269.00
2023-05-05T09:41:57.573Z,95269.00
2023-05-05T09:42:57.629Z,95263.00
2023-05-05T09:43:57.919Z,95263.00
2023-05-05T09:44:59.768Z,95265.00
2023-05-05T09:45:57.720Z,95261.00
2023-05-05T09:46:57.789Z,95263.00
2023-05-05T09:48:00.206Z,95259.00
2023-05-05T09:48:57.939Z,95259.00
2023-05-05T09:49:57.796Z,95255.00
2023-05-05T09:50:57.777Z,95253.00
2023-05-05T09:51:57.772Z,95253.00
2023-05-05T09:52:57.739Z,95251.00
2023-05-05T09:53:57.880Z,95251.00
2023-05-05T09:54:57.732Z,95245.00
2023-05-05T09:55:57.739Z,95245.00
2023-05-05T09:56:57.790Z,95247.00
2023-05-05T09:57:57.757Z,95245.00
2023-05-05T09:58:58.751Z,95245.00
2023-05-05T09:59:57.726Z,95245.00
2023-05-05T10:00:57.694Z,95245.00
2023-05-05T10:01:57.777Z,95247.00
2023-05-05T10:02:57.715Z,95237.00
2023-05-05T10:03:57.696Z,95241.00
2023-05-05T10:04:58.577Z,95235.00
2023-05-05T10:05:57.687Z,95233.00
2023-05-05T10:06:57.668Z,95235.00
2023-05-05T10:07:57.685Z,95233.00
2023-05-05T10:08:57.965Z,95233.00
2023-05-05T10:09:57.702Z,95231.00
2023-05-05T10:10:57.856Z,95229.00
2023-05-05T10:11:57.728Z,95229.00
2023-05-05T10:12:57.842Z,95231.00
2023-05-05T10:13:57.857Z,95225.00
2023-05-05T10:14:57.877Z,95219.00
2023-05-05T10:15:58.046Z,95223.00
2023-05-05T10:16:57.959Z,95219.00
2023-05-05T10:18:06.761Z,95217.00
2023-05-05T10:18:59.023Z,95214.00
2023-05-05T10:19:57.970Z,95214.00
2023-05-05T10:20:57.953Z,95212.00
2023-05-05T10:21:57.897Z,95214.00
2023-05-05T10:22:57.892Z,95212.00
2023-05-05T10:23:57.934Z,95208.00
2023-05-05T10:24:58.002Z,95210.00
2023-05-05T10:25:57.904Z,95206.00
2023-05-05T10:26:57.877Z,95210.00
2023-05-05T10:27:57.891Z,95206.00
2023-05-05T10:28:57.991Z,95202.00
2023-05-05T10:29:57.977Z,95202.00
2023-05-05T10:30:57.974Z,95200.00
2023-05-05T10:31:58.028Z,95198.00
2023-05-05T10:33:09.124Z,95200.00
2023-05-05T10:33:59.220Z,95194.00
2023-05-05T10:34:58.070Z,95192.00
2023-05-05T10:35:58.076Z,95190.00
2023-05-05T10:36:58.096Z,95190.00
2023-05-05T10:37:58.138Z,95184.00
2023-05-05T10:38:58.472Z,95184.00
2023-05-05T10:39:58.038Z,95180.00
2023-05-05T10:40:58.055Z,95174.00
2023-05-05T10:41:57.997Z,95178.00
2023-05-05T10:42:57.969Z,95174.00
2023-05-05T10:43:58.407Z,95174.00
2023-05-05T10:44:58.084Z,95170.00
2023-05-05T10:45:58.322Z,95168.00
2023-05-05T10:46:58.145Z,95161.00
2023-05-05T10:47:58.206Z,95161.00
2023-05-05T10:48:58.542Z,95157.00
2023-05-05T10:49:58.265Z,95155.00
2023-05-05T10:50:58.229Z,95151.00
2023-05-05T10:51:58.239Z,95153.00
2023-05-05T10:52:58.301Z,95151.00
2023-05-05T10:53:58.412Z,95149.00
2023-05-05T10:54:58.387Z,95143.00
2023-05-05T10:55:58.503Z,95145.00
2023-05-05T10:56:58.456Z,95139.00
2023-05-05T10:57:58.510Z,95141.00
2023-05-05T10:59:00.628Z,95137.00
2023-05-05T10:59:58.622Z,95141.00
2023-05-05T11:00:58.685Z,95139.00
2023-05-05T11:01:58.666Z,95131.00
2023-05-05T11:02:58.777Z,95131.00
2023-05-05T11:03:58.881Z,95125.00
2023-05-05T11:04:58.867Z,95129.00
2023-05-05T11:05:58.887Z,95123.00
2023-05-05T11:06:58.927Z,95123.00
2023-05-05T11:07:59.019Z,95123.00
2023-05-05T11:08:59.019Z,95122.00
2023-05-05T11:09:59.007Z,95120.00
2023-05-05T11:10:59.052Z,95112.00
2023-05-05T11:11:59.139Z,95118.00
2023-05-05T11:12:59.264Z,95114.00
2023-05-05T11:13:59.788Z,95112.00
2023-05-05T11:14:59.244Z,95106.00
2023-05-05T11:15:59.248Z,95102.00
2023-05-05T11:16:59.353Z,95100.00
2023-05-05T11:17:59.426Z,95098.00
2023-05-05T11:19:00.064Z,95094.00
2023-05-05T11:19:59.474Z,95092.00
2023-05-05T11:20:59.488Z,95094.00
2023-05-05T11:21:59.534Z,95090.00
2023-05-05T11:22:59.545Z,95086.00
2023-05-05T11:23:59.634Z,95082.00
2023-05-05T11:24:59.640Z,95088.00
2023-05-05T11:25:59.634Z,95082.00
2023-05-05T11:26:59.655Z,95082.00
2023-05-05T11:27:59.654Z,95080.00
2023-05-05T11:28:59.981Z,95078.00
2023-05-05T11:29:59.707Z,95078.00
2023-05-05T11:30:59.942Z,95078.00
2023-05-05T11:31:59.967Z,95075.00
2023-05-05T11:32:59.895Z,95075.00
2023-05-05T11:33:59.786Z,95073.00
2023-05-05T11:35:00.041Z,95068.00
2023-05-05T11:36:00.027Z,95067.00
2023-05-05T11:37:00.031Z,95067.00
2023-05-05T11:37:59.911Z,95068.00
2023-05-05T11:38:59.929Z,95063.00
2023-05-05T11:40:00.058Z,95065.00
2023-05-05T11:40:59.931Z,95059.00
2023-05-05T11:41:59.949Z,95057.00
2023-05-05T11:42:59.951Z,95055.00
2023-05-05T11:44:00.007Z,95053.00
2023-05-05T11:44:59.963Z,95051.00
2023-05-05T11:46:00.159Z,95049.00
2023-05-05T11:47:00.092Z,95051.00